createdAt,value
2023-05-21T00:01:48.871Z,98841.17
2023-05-21T00:06:56.286Z,98832.86
2023-05-21T00:12:03.478Z,98834.33
2023-05-21T00:17:10.656Z,98833.46
2023-05-21T00:22:18.051Z,98828.30
2023-05-21T00:27:25.361Z,98828.39
2023-05-21T00:32:32.595Z,98826.63
2023-05-21T00:37:39.737Z,98823.55
2023-05-21T00:42:48.355Z,98825.73
2023-05-21T00:47:56.381Z,98824.30
2023-05-21T00:53:03.637Z,98822.95
2023-05-21T00:58:11.206Z,98817.57
2023-05-21T01:03:19.501Z,98810.83
2023-05-21T01:08:27.622Z,98808.27
2023-05-21T01:13:35.845Z,98807.95
2023-05-21T01:18:45.597Z,98804.88
2023-05-21T01:23:53.166Z,98797.73
2023-05-21T01:29:00.662Z,98795.34
2023-05-21T01:34:09.950Z,98792.77
2023-05-21T01:39:19.646Z,98792.23
2023-05-21T01:44:28.096Z,98794.52
2023-05-21T01:49:35.428Z,98786.54
2023-05-21T01:54:42.788Z,98776.13
2023-05-21T01:59:50.008Z,98774.36
2023-05-21T02:04:57.316Z,98762.77
2023-05-21T02:10:04.671Z,98764.06
2023-05-21T02:15:11.957Z,98758.69
2023-05-21T02:20:19.035Z,98753.96
2023-05-21T02:25:26.121Z,98753.85
2023-05-21T02:30:33.352Z,98755.65
2023-05-21T02:35:40.563Z,98746.90
2023-05-21T02:40:47.532Z,98745.43
2023-05-21T02:45:55.056Z,98743.33
2023-05-21T02:51:02.534Z,98740.52
2023-05-21T02:56:10.000Z,98740.20
2023-05-21T03:01:17.517Z,98743.35
2023-05-21T03:06:24.719Z,98742.73
2023-05-21T03:11:32.093Z,98740.37
2023-05-21T03:16:42.131Z,98739.17
2023-05-21T03:21:50.986Z,98737.98
2023-05-21T03:26:59.556Z,98738.80
2023-05-21T03:32:07.025Z,98739.17
2023-05-21T03:37:14.325Z,98739.04
2023-05-21T03:42:21.634Z,98734.63
2023-05-21T03:47:28.853Z,98740.66
2023-05-21T03:52:35.909Z,98738.70
2023-05-21T03:57:43.379Z,98734.88
2023-05-21T04:02:50.966Z,98736.98
2023-05-21T04:07:59.190Z,98738.45
2023-05-21T04:13:06.940Z,98738.67
2023-05-21T04:18:15.909Z,98735.09
2023-05-21T04:23:24.120Z,98734.39
2023-05-21T04:28:31.528Z,98736.65
2023-05-21T04:33:38.771Z,98742.88
2023-05-21T04:38:46.229Z,98744.23
2023-05-21T04:43:55.615Z,98746.21
2023-05-21T04:49:04.214Z,98749.73
2023-05-21T04:54:11.595Z,98746.36
2023-05-21T04:59:19.014Z,98744.45
2023-05-21T05:04:26.368Z,98743.59
2023-05-21T05:09:34.030Z,98745.58
2023-05-21T05:14:41.458Z,98744.66
2023-05-21T05:19:48.797Z,98749.55
2023-05-21T05:24:56.116Z,98752.36
2023-05-21T05:30:03.412Z,98751.38
2023-05-21T05:35:11.674Z,98743.56
2023-05-21T05:40:19.077Z,98748.53
2023-05-21T05:45:27.286Z,98743.71
2023-05-21T05:50:34.825Z,98744.17
2023-05-21T05:55:42.030Z,98744.70
2023-05-21T06:00:49.406Z,98739.73
2023-05-21T06:05:56.961Z,98742.06
2023-05-21T06:11:04.964Z,98741.48
2023-05-21T06:16:13.038Z,98735.06
2023-05-21T06:21:20.362Z,98738.09
2023-05-21T06:26:27.517Z,98731.31
2023-05-21T06:31:34.727Z,98727.47
2023-05-21T06:36:42.573Z,98726.11
2023-05-21T06:41:49.947Z,98723.25
2023-05-21T06:46:57.459Z,98717.26
2023-05-21T06:52:04.970Z,98711.73
2023-05-21T06:57:12.299Z,98708.82
2023-05-21T07:02:19.683Z,98699.09
2023-05-21T07:07:27.757Z,98693.30
2023-05-21T07:12:34.748Z,98693.55
2023-05-21T07:17:41.895Z,98687.83
2023-05-21T07:22:49.486Z,98686.64
2023-05-21T07:27:56.989Z,98686.58
2023-05-21T07:33:04.196Z,98680.19
2023-05-21T07:38:11.846Z,98677.34
2023-05-21T07:43:19.253Z,98680.92
2023-05-21T07:48:27.430Z,98680.45
2023-05-21T07:53:34.608Z,98669.73
2023-05-21T07:58:44.305Z,98666.61
2023-05-21T08:03:51.971Z,98670.00
2023-05-21T08:09:00.368Z,98672.59
2023-05-21T08:14:07.879Z,98666.66
2023-05-21T08:19:15.350Z,98666.59
2023-05-21T08:24:23.107Z,98667.63
2023-05-21T08:29:30.341Z,98673.42
2023-05-21T08:34:37.713Z,98672.80
2023-05-21T08:39:44.891Z,98674.36
2023-05-21T08:44:54.691Z,98680.20
2023-05-21T08:50:02.258Z,98676.56
2023-05-21T08:55:10.740Z,98675.45
2023-05-21T09:00:18.610Z,98676.52
2023-05-21T09:05:26.076Z,98673.21
2023-05-21T09:10:36.960Z,98667.69
2023-05-21T09:15:44.467Z,98672.14
2023-05-21T09:20:52.719Z,98676.90
2023-05-21T09:26:00.485Z,98673.30
2023-05-21T09:31:07.754Z,98675.75
2023-05-21T09:36:15.179Z,98672.74
2023-05-21T09:41:23.408Z,98672.49
2023-05-21T09:46:39.653Z,98672.23
2023-05-21T09:51:47.416Z,98673.21
2023-05-21T09:56:55.115Z,98666.42
2023-05-21T10:02:02.689Z,98659.94
2023-05-21T10:07:10.096Z,98654.20
2023-05-21T10:12:20.207Z,98654.56
2023-05-21T10:17:28.669Z,98643.42
2023-05-21T10:22:36.405Z,98639.89
2023-05-21T10:27:43.642Z,98637.97
2023-05-21T10:32:51.642Z,98636.88
2023-05-21T10:37:59.357Z,98637.48
2023-05-21T10:43:14.392Z,98636.70
2023-05-21T10:48:34.138Z,98635.45
2023-05-21T10:53:47.738Z,98629.55
2023-05-21T10:59:11.269Z,98627.48
2023-05-21T11:04:19.674Z,98626.67
2023-05-21T11:09:26.861Z,98622.15
2023-05-21T11:14:35.894Z,98619.48
2023-05-21T11:19:43.860Z,98617.52
2023-05-21T11:24:51.705Z,98614.64
2023-05-21T11:29:59.590Z,98613.52
2023-05-21T11:35:07.300Z,98616.03
2023-05-21T11:40:21.412Z,98614.70
2023-05-21T11:45:32.861Z,98609.60
2023-05-21T11:50:42.615Z,98608.36
2023-05-21T11:55:50.894Z,98606.39
2023-05-21T12:00:57.860Z,98605.63
2023-05-21T12:06:09.883Z,98603.49
2023-05-21T12:11:16.942Z,98608.70
2023-05-21T12:16:24.524Z,98612.09
2023-05-21T12:21:32.269Z,98607.98
2023-05-21T12:26:39.531Z,98603.34
2023-05-21T12:31:53.156Z,98605.35
2023-05-21T12:37:00.422Z,98608.40
2023-05-21T12:42:08.042Z,98601.52
2023-05-21T12:47:15.353Z,98598.67
2023-05-21T12:52:22.761Z,98595.57
2023-05-21T12:57:30.339Z,98594.92
2023-05-21T13:02:40.921Z,98598.61
2023-05-21T13:07:52.181Z,98585.94
2023-05-21T13:13:00.440Z,98586.45
2023-05-21T13:18:10.592Z,98592.52
2023-05-21T13:23:19.128Z,98587.00
2023-05-21T13:28:26.423Z,98581.72
2023-05-21T13:33:33.855Z,98585.95
2023-05-21T13:38:41.530Z,98581.89
2023-05-21T13:43:49.107Z,98573.80
2023-05-21T13:48:56.714Z,98574.91
2023-05-21T13:54:04.175Z,98578.69
2023-05-21T13:59:12.135Z,98575.88
2023-05-21T14:04:19.704Z,98570.63
2023-05-21T14:09:27.599Z,98568.08
2023-05-21T14:14:35.154Z,98567.36
2023-05-21T14:19:42.962Z,98566.76
2023-05-21T14:24:50.418Z,98559.74
2023-05-21T14:29:57.496Z,98566.83
2023-05-21T14:35:05.017Z,98566.46
2023-05-21T14:40:13.616Z,98564.09
2023-05-21T14:45:21.100Z,98571.00
2023-05-21T14:50:28.447Z,98567.72
2023-05-21T14:55:37.260Z,98564.95
2023-05-21T15:00:44.971Z,98559.75
2023-05-21T15:05:52.556Z,98564.05
2023-05-21T15:10:59.799Z,98559.86
2023-05-21T15:16:07.576Z,98561.73
2023-05-21T15:21:15.073Z,98563.63
2023-05-21T15:26:23.170Z,98561.35
2023-05-21T15:31:30.521Z,98560.64
2023-05-21T15:36:38.311Z,98558.80
2023-05-21T15:41:45.732Z,98558.19
2023-05-21T15:46:54.338Z,98553.67
2023-05-21T15:52:01.752Z,98553.73
2023-05-21T15:57:09.161Z,98552.52
2023-05-21T16:02:16.464Z,98553.30
2023-05-21T16:07:24.923Z,98556.11
2023-05-21T16:12:32.120Z,98555.16
2023-05-21T16:17:39.439Z,98555.29
2023-05-21T16:22:46.944Z,98552.48
2023-05-21T16:27:53.980Z,98552.77
2023-05-21T16:33:01.198Z,98552.33
2023-05-21T16:38:08.631Z,98548.60
2023-05-21T16:43:16.154Z,98552.39
2023-05-21T16:48:23.324Z,98554.71
2023-05-21T16:53:30.703Z,98562.45
2023-05-21T16:58:38.091Z,98560.73
2023-05-21T17:03:45.616Z,98561.77
2023-05-21T17:08:52.970Z,98562.09
2023-05-21T17:14:00.281Z,98566.37
2023-05-21T17:19:07.601Z,98563.66
2023-05-21T17:24:14.946Z,98565.44
2023-05-21T17:29:22.124Z,98562.60
2023-05-21T17:34:30.837Z,98563.03
2023-05-21T17:39:38.302Z,98564.66
2023-05-21T17:44:45.485Z,98562.42
2023-05-21T17:49:52.727Z,98563.86
2023-05-21T17:55:00.044Z,98566.18
2023-05-21T18:00:08.933Z,98570.73
2023-05-21T18:05:16.563Z,98579.08
2023-05-21T18:10:24.353Z,98579.17
2023-05-21T18:15:31.722Z,98584.02
2023-05-21T18:20:39.539Z,98585.03
2023-05-21T18:25:46.670Z,98589.10
2023-05-21T18:30:55.527Z,98592.38
2023-05-21T18:36:02.937Z,98589.05
2023-05-21T18:41:10.584Z,98592.94
2023-05-21T18:46:18.768Z,98593.18
2023-05-21T18:51:26.747Z,98594.83
2023-05-21T18:56:34.224Z,98596.50
2023-05-21T19:01:42.031Z,98597.73
2023-05-21T19:06:49.662Z,98597.25
2023-05-21T19:11:56.863Z,98598.35
2023-05-21T19:17:04.864Z,98597.56
2023-05-21T19:22:12.382Z,98599.84
2023-05-21T19:27:19.885Z,98602.21
2023-05-21T19:32:27.260Z,98612.05
2023-05-21T19:37:35.001Z,98607.26
2023-05-21T19:42:44.383Z,98607.60
2023-05-21T19:47:51.956Z,98610.83
2023-05-21T19:52:59.894Z,98607.20
2023-05-21T19:58:07.076Z,98607.75
2023-05-21T20:03:15.325Z,98610.06
2023-05-21T20:08:22.495Z,98607.20
2023-05-21T20:13:30.109Z,98604.02
2023-05-21T20:18:37.365Z,98602.04
2023-05-21T20:23:44.680Z,98601.73
2023-05-21T20:28:51.798Z,98602.12
2023-05-21T20:33:59.320Z,98600.58
2023-05-21T20:39:06.796Z,98600.81
2023-05-21T20:44:14.211Z,98599.77
2023-05-21T20:49:25.193Z,98603.36
2023-05-21T20:54:32.907Z,98604.95
2023-05-21T20:59:40.288Z,98599.61
2023-05-21T21:04:49.498Z,98600.95
2023-05-21T21:09:56.937Z,98600.13
2023-05-21T21:15:04.271Z,98604.54
2023-05-21T21:20:13.194Z,98604.32
2023-05-21T21:25:20.657Z,98604.88
2023-05-21T21:30:27.979Z,98602.64
2023-05-21T21:35:35.152Z,98600.96
2023-05-21T21:40:42.451Z,98596.94
2023-05-21T21:45:49.846Z,98596.92
2023-05-21T21:50:57.791Z,98598.48
2023-05-21T21:56:05.370Z,98600.63
2023-05-21T22:01:12.859Z,98600.46
2023-05-21T22:06:20.382Z,98603.61
2023-05-21T22:11:28.876Z,98609.16
2023-05-21T22:16:36.904Z,98601.34
2023-05-21T22:21:43.985Z,98600.14
2023-05-21T22:26:51.225Z,98599.52
2023-05-21T22:31:58.432Z,98593.13
2023-05-21T22:37:05.824Z,98592.28
2023-05-21T22:42:13.291Z,98603.38
2023-05-21T22:47:23.458Z,98601.04
2023-05-21T22:52:31.036Z,98603.55
2023-05-21T22:57:38.237Z,98597.58
2023-05-21T23:02:45.688Z,98592.93
2023-05-21T23:07:52.766Z,98590.44
2023-05-21T23:12:59.975Z,98592.77
2023-05-21T23:18:08.049Z,98597.12
2023-05-21T23:23:15.211Z,98595.86
2023-05-21T23:28:22.394Z,98585.52
2023-05-21T23:33:30.253Z,98579.46
2023-05-21T23:38:37.792Z,98577.06
2023-05-21T23:43:45.195Z,98572.89
2023-05-21T23:48:52.202Z,98567.50
2023-05-21T23:53:59.316Z,98574.08
2023-05-21T23:59:06.745Z,98565.74
